createdAt,value
2023-04-23T00:00:24.389Z,98508.03
2023-04-23T00:05:28.127Z,98506.56
2023-04-23T00:10:30.088Z,98507.23
2023-04-23T00:15:32.478Z,98503.48
2023-04-23T00:20:35.443Z,98499.27
2023-04-23T00:25:37.158Z,98502.23
2023-04-23T00:30:39.249Z,98499.42
2023-04-23T00:35:41.256Z,98496.23
2023-04-23T00:40:43.536Z,98487.11
2023-04-23T00:45:45.451Z,98486.47
2023-04-23T00:50:47.261Z,98483.11
2023-04-23T00:55:49.080Z,98485.55
2023-04-23T01:00:52.540Z,98486.92
2023-04-23T01:05:54.512Z,98488.55
2023-04-23T01:10:56.348Z,98491.77
2023-04-23T01:15:58.522Z,98492.77
2023-04-23T01:21:00.651Z,98493.77
2023-04-23T01:26:02.773Z,98493.73
2023-04-23T01:31:04.612Z,98493.25
2023-04-23T01:36:07.466Z,98493.14
2023-04-23T01:41:09.241Z,98492.70
2023-04-23T01:46:11.628Z,98488.92
2023-04-23T01:51:13.425Z,98488.48
2023-04-23T01:56:16.524Z,98487.99
2023-04-23T02:01:18.305Z,98485.73
2023-04-23T02:06:20.089Z,98485.35
2023-04-23T02:11:21.959Z,98482.06
2023-04-23T02:16:24.660Z,98480.52
2023-04-23T02:21:27.457Z,98476.87
2023-04-23T02:26:29.723Z,98470.89
2023-04-23T02:31:31.652Z,98469.04
2023-04-23T02:36:34.019Z,98464.11
2023-04-23T02:41:36.172Z,98464.52
2023-04-23T02:46:38.373Z,98458.42
2023-04-23T02:51:40.135Z,98458.52
2023-04-23T02:56:42.132Z,98461.30
2023-04-23T03:01:44.069Z,98461.02
2023-04-23T03:06:46.398Z,98460.90
2023-04-23T03:11:49.442Z,98461.34
2023-04-23T03:16:51.331Z,98463.16
2023-04-23T03:21:53.632Z,98461.52
2023-04-23T03:26:55.550Z,98460.03
2023-04-23T03:31:57.353Z,98457.16
2023-04-23T03:36:59.136Z,98458.94
2023-04-23T03:42:01.997Z,98462.64
2023-04-23T03:47:05.103Z,98459.58
2023-04-23T03:52:07.079Z,98466.01
2023-04-23T03:57:12.243Z,98466.64
2023-04-23T04:02:25.937Z,98466.66
2023-04-23T04:07:28.704Z,98464.73
2023-04-23T04:12:31.300Z,98463.56
2023-04-23T04:17:32.976Z,98468.37
2023-04-23T04:22:34.739Z,98469.60
2023-04-23T04:27:37.629Z,98467.06
2023-04-23T04:32:40.591Z,98471.69
2023-04-23T04:37:44.029Z,98470.58
2023-04-23T04:42:46.539Z,98471.50
2023-04-23T04:47:48.322Z,98471.68
2023-04-23T04:52:50.059Z,98467.90
2023-04-23T04:57:51.730Z,98470.31
2023-04-23T05:02:53.953Z,98468.01
2023-04-23T05:07:59.142Z,98464.00
2023-04-23T05:13:01.154Z,98459.39
2023-04-23T05:18:06.372Z,98457.09
2023-04-23T05:23:08.261Z,98455.02
2023-04-23T05:28:09.948Z,98452.60
2023-04-23T05:33:12.505Z,98453.80
2023-04-23T05:38:14.177Z,98452.23
2023-04-23T05:43:16.372Z,98454.20
2023-04-23T05:48:18.053Z,98453.91
2023-04-23T05:53:19.909Z,98451.27
2023-04-23T05:58:22.243Z,98454.22
2023-04-23T06:03:24.481Z,98457.65
2023-04-23T06:08:26.302Z,98456.17
2023-04-23T06:13:30.773Z,98453.99
2023-04-23T06:18:32.447Z,98451.44
2023-04-23T06:23:34.395Z,98452.55
2023-04-23T06:28:36.141Z,98455.16
2023-04-23T06:33:57.033Z,98452.36
2023-04-23T06:38:59.292Z,98447.56
2023-04-23T06:44:01.208Z,98450.75
2023-04-23T06:49:07.207Z,98443.48
2023-04-23T06:54:08.920Z,98438.81
2023-04-23T06:59:10.578Z,98435.57
2023-04-23T07:04:19.599Z,98435.70
2023-04-23T07:09:21.478Z,98434.13
2023-04-23T07:14:25.259Z,98432.67
2023-04-23T07:19:27.613Z,98431.84
2023-04-23T07:24:29.486Z,98422.52
2023-04-23T07:29:31.408Z,98419.23
2023-04-23T07:34:34.153Z,98416.89
2023-04-23T07:39:36.607Z,98414.64
2023-04-23T07:44:38.665Z,98412.59
2023-04-23T07:49:40.616Z,98409.23
2023-04-23T07:54:42.995Z,98409.19
2023-04-23T07:59:44.729Z,98407.59
2023-04-23T08:04:47.055Z,98398.35
2023-04-23T08:09:49.185Z,98395.02
2023-04-23T08:14:50.931Z,98392.13
2023-04-23T08:19:53.759Z,98394.16
2023-04-23T08:24:55.645Z,98388.69
2023-04-23T08:29:57.242Z,98387.05
2023-04-23T08:34:59.498Z,98381.21
2023-04-23T08:40:01.579Z,98375.32
2023-04-23T08:45:04.919Z,98376.88
2023-04-23T08:50:08.508Z,98374.28
2023-04-23T08:55:10.748Z,98367.05
2023-04-23T09:00:14.659Z,98362.23
2023-04-23T09:05:16.506Z,98361.14
2023-04-23T09:10:18.766Z,98358.89
2023-04-23T09:15:20.742Z,98355.12
2023-04-23T09:20:22.755Z,98349.81
2023-04-23T09:25:24.807Z,98347.80
2023-04-23T09:30:27.600Z,98345.91
2023-04-23T09:35:29.730Z,98341.16
2023-04-23T09:40:31.664Z,98333.10
2023-04-23T09:45:35.286Z,98331.86
2023-04-23T09:50:39.488Z,98327.66
2023-04-23T09:55:43.013Z,98323.98
2023-04-23T10:00:44.882Z,98312.23
2023-04-23T10:06:00.209Z,98305.24
2023-04-23T10:11:19.601Z,98299.83
2023-04-23T10:16:26.801Z,98299.41
2023-04-23T10:21:50.131Z,98292.94
2023-04-23T10:26:59.822Z,98287.69
2023-04-23T10:32:06.299Z,98276.73
2023-04-23T10:37:08.778Z,98271.16
2023-04-23T10:42:13.571Z,98269.63
2023-04-23T10:47:16.840Z,98260.02
2023-04-23T10:52:21.694Z,98261.20
2023-04-23T10:57:24.625Z,98256.74
2023-04-23T11:02:42.673Z,98259.62
2023-04-23T11:08:11.083Z,98252.66
2023-04-23T11:13:22.541Z,98257.64
2023-04-23T11:18:24.277Z,98253.14
2023-04-23T11:23:34.288Z,98251.19
2023-04-23T11:28:38.373Z,98245.05
2023-04-23T11:33:40.060Z,98244.20
2023-04-23T11:38:42.188Z,98240.54
2023-04-23T11:43:43.843Z,98232.82
2023-04-23T11:48:45.661Z,98222.94
2023-04-23T11:53:48.572Z,98219.42
2023-04-23T11:59:00.204Z,98215.18
2023-04-23T12:04:10.204Z,98223.77
2023-04-23T12:09:14.181Z,98222.70
2023-04-23T12:14:17.851Z,98219.24
2023-04-23T12:19:26.282Z,98213.56
2023-04-23T12:24:30.975Z,98208.51
2023-04-23T12:29:32.600Z,98206.52
2023-04-23T12:34:34.376Z,98198.55
2023-04-23T12:39:36.570Z,98195.80
2023-04-23T12:44:39.223Z,98201.04
2023-04-23T12:49:42.272Z,98188.40
2023-04-23T12:54:45.008Z,98184.93
2023-04-23T12:59:47.018Z,98184.33
2023-04-23T13:04:48.668Z,98175.20
2023-04-23T13:09:50.912Z,98175.08
2023-04-23T13:14:52.762Z,98176.27
2023-04-23T13:19:55.698Z,98174.27
2023-04-23T13:24:59.377Z,98166.41
2023-04-23T13:30:01.328Z,98165.01
2023-04-23T13:35:05.094Z,98153.51
2023-04-23T13:40:07.912Z,98144.98
2023-04-23T13:45:10.188Z,98149.68
2023-04-23T13:50:12.493Z,98147.02
2023-04-23T13:55:14.288Z,98141.73
2023-04-23T14:00:16.660Z,98129.88
2023-04-23T14:05:18.413Z,98132.13
2023-04-23T14:10:20.641Z,98137.61
2023-04-23T14:15:22.798Z,98137.35
2023-04-23T14:20:24.497Z,98137.95
2023-04-23T14:25:41.106Z,98135.11
2023-04-23T14:30:42.732Z,98133.23
2023-04-23T14:35:44.478Z,98132.11
2023-04-23T14:40:46.652Z,98131.80
2023-04-23T14:45:48.443Z,98125.42
2023-04-23T14:50:50.947Z,98122.42
2023-04-23T14:55:52.683Z,98121.98
2023-04-23T15:00:54.413Z,98120.56
2023-04-23T15:05:56.176Z,98115.42
2023-04-23T15:10:59.774Z,98114.41
2023-04-23T15:16:03.651Z,98107.54
2023-04-23T15:21:06.859Z,98110.27
2023-04-23T15:26:09.018Z,98107.27
2023-04-23T15:31:11.206Z,98105.13
2023-04-23T15:36:13.799Z,98103.11
2023-04-23T15:41:15.733Z,98107.00
2023-04-23T15:46:17.613Z,98103.65
2023-04-23T15:51:19.734Z,98099.63
2023-04-23T15:56:22.003Z,98093.79
2023-04-23T16:01:25.581Z,98092.67
2023-04-23T16:06:29.040Z,98089.69
2023-04-23T16:11:31.109Z,98085.32
2023-04-23T16:16:33.015Z,98080.56
2023-04-23T16:21:34.862Z,98075.71
2023-04-23T16:26:37.508Z,98076.86
2023-04-23T16:31:39.878Z,98073.89
2023-04-23T16:36:41.641Z,98078.02
2023-04-23T16:41:43.412Z,98072.10
2023-04-23T16:46:45.270Z,98062.48
2023-04-23T16:51:47.047Z,98065.10
2023-04-23T16:56:48.613Z,98064.85
2023-04-23T17:01:50.369Z,98065.79
2023-04-23T17:06:52.098Z,98064.92
2023-04-23T17:11:54.074Z,98065.67
2023-04-23T17:16:56.434Z,98063.02
2023-04-23T17:21:58.695Z,98065.46
2023-04-23T17:27:01.639Z,98065.21
2023-04-23T17:32:04.159Z,98069.84
2023-04-23T17:37:05.987Z,98072.41
2023-04-23T17:42:07.972Z,98070.27
2023-04-23T17:47:11.024Z,98069.91
2023-04-23T17:52:12.831Z,98075.50
2023-04-23T17:57:14.689Z,98078.20
2023-04-23T18:02:16.907Z,98078.80
2023-04-23T18:07:19.401Z,98085.27
2023-04-23T18:12:21.848Z,98087.54
2023-04-23T18:17:24.847Z,98093.89
2023-04-23T18:22:26.565Z,98096.83
2023-04-23T18:27:28.456Z,98100.15
2023-04-23T18:38:09.428Z,98104.75
2023-04-23T18:43:11.571Z,98103.25
2023-04-23T18:48:35.357Z,98103.63
2023-04-23T18:53:38.950Z,98100.66
2023-04-23T18:58:40.872Z,98102.29
2023-04-23T19:03:42.997Z,98102.46
2023-04-23T19:08:45.664Z,98103.80
2023-04-23T19:13:47.703Z,98110.08
2023-04-23T19:18:49.414Z,98107.85
2023-04-23T19:23:52.325Z,98109.88
2023-04-23T19:28:54.077Z,98113.23
2023-04-23T19:33:57.193Z,98110.38
2023-04-23T19:38:58.853Z,98114.02
2023-04-23T19:44:00.916Z,98114.95
2023-04-23T19:49:02.619Z,98110.40
2023-04-23T19:54:05.437Z,98112.61
2023-04-23T19:59:09.591Z,98110.52
2023-04-23T20:04:11.495Z,98110.10
2023-04-23T20:09:21.017Z,98109.04
2023-04-23T20:14:22.964Z,98102.05
2023-04-23T20:19:27.571Z,98101.07
2023-04-23T20:24:29.301Z,98101.83
2023-04-23T20:29:31.252Z,98103.15
2023-04-23T20:34:33.167Z,98100.96
2023-04-23T20:39:38.299Z,98101.96
2023-04-23T20:44:41.852Z,98102.60
2023-04-23T20:49:43.808Z,98099.14
2023-04-23T20:54:45.757Z,98095.41
2023-04-23T20:59:47.486Z,98094.70
2023-04-23T21:04:49.139Z,98089.90
2023-04-23T21:09:51.449Z,98085.41
2023-04-23T21:14:56.937Z,98082.23
2023-04-23T21:19:58.582Z,98077.39
2023-04-23T21:25:00.290Z,98076.52
2023-04-23T21:30:08.830Z,98071.18
2023-04-23T21:35:12.998Z,98065.34
2023-04-23T21:40:15.373Z,98060.63
2023-04-23T21:45:18.186Z,98060.27
2023-04-23T21:50:39.862Z,98059.05
2023-04-23T21:55:41.579Z,98056.88
2023-04-23T22:00:44.802Z,98050.79
2023-04-23T22:05:47.107Z,98048.95
2023-04-23T22:10:49.021Z,98043.02
2023-04-23T22:15:51.053Z,98043.00
2023-04-23T22:20:53.076Z,98041.08
2023-04-23T22:25:54.816Z,98040.36
2023-04-23T22:30:56.722Z,98040.04
2023-04-23T22:35:59.607Z,98033.27
2023-04-23T22:41:02.078Z,98030.29
2023-04-23T22:46:04.116Z,98028.44
2023-04-23T22:51:06.981Z,98023.66
2023-04-23T22:56:08.858Z,98023.73
2023-04-23T23:01:11.126Z,98016.64
2023-04-23T23:06:12.798Z,98010.52
2023-04-23T23:11:15.763Z,98002.90
2023-04-23T23:16:17.539Z,97996.15
2023-04-23T23:21:19.557Z,97993.74
2023-04-23T23:26:21.466Z,97993.48
2023-04-23T23:31:26.048Z,97988.33
2023-04-23T23:36:27.901Z,97990.05
2023-04-23T23:41:49.623Z,97985.06
2023-04-23T23:46:52.631Z,97983.25
2023-04-23T23:52:00.043Z,97974.58
2023-04-23T23:57:01.907Z,97972.06
